Time;durP1;ratioP1;P1;durP2;ratioP2;P2;SDS_P1;SDS_P2;PMS_P1;PMS_P2;Temp;Humidity;BMP_temperature;BMP_pressure;BME280_temperature;BME280_humidity;BME280_pressure;Samples;Min_cycle;Max_cycle;Signal;HPM_P1;HPM_P2
2023/02/13 00:02:04;;;;;;;42.23;10.30;;;;;;;2.14;100.00;98164.34;5056140;28;20606;-68
2023/02/13 00:04:30;;;;;;;50.27;10.93;;;;;;;2.23;100.00;98166.47;5056309;28;20699;-68
2023/02/13 00:06:57;;;;;;;31.87;9.93;;;;;;;2.26;100.00;98160.28;5056405;28;20214;-69
2023/02/13 00:09:23;;;;;;;41.77;9.40;;;;;;;2.26;100.00;98171.50;5056773;28;20205;-66
2023/02/13 00:11:50;;;;;;;49.80;10.73;;;;;;;2.25;100.00;98169.00;5057762;28;20233;-67
2023/02/13 00:14:17;;;;;;;33.67;9.97;;;;;;;2.36;100.00;98171.88;5055795;28;20492;-67
2023/02/13 00:16:44;;;;;;;36.13;10.60;;;;;;;2.37;100.00;98173.53;5054927;28;20217;-67
2023/02/13 00:19:10;;;;;;;34.40;10.80;;;;;;;2.36;100.00;98169.28;5057141;28;20205;-68
2023/02/13 00:21:37;;;;;;;38.93;10.80;;;;;;;2.44;100.00;98166.19;5056511;28;20229;-68
2023/02/13 00:24:04;;;;;;;30.73;10.20;;;;;;;2.46;100.00;98166.94;5055465;28;20512;-68
2023/02/13 00:26:30;;;;;;;40.07;11.03;;;;;;;2.39;100.00;98161.31;5057058;28;20204;-69
2023/02/13 00:28:57;;;;;;;43.57;10.23;;;;;;;2.37;100.00;98157.94;5056143;28;20213;-67
2023/02/13 00:31:25;;;;;;;36.93;9.57;;;;;;;2.38;100.00;98151.81;5055838;28;20582;-66
2023/02/13 00:33:52;;;;;;;35.20;11.47;;;;;;;2.16;100.00;98153.88;5056028;28;20488;-68
2023/02/13 00:36:20;;;;;;;39.40;10.47;;;;;;;2.18;100.00;98154.63;5055887;28;20198;-68
2023/02/13 00:38:48;;;;;;;39.60;9.33;;;;;;;2.12;100.00;98152.34;5056411;28;20211;-68
2023/02/13 00:41:16;;;;;;;33.67;11.47;;;;;;;2.02;100.00;98156.34;5056578;28;20237;-68
2023/02/13 00:43:42;;;;;;;33.90;10.20;;;;;;;2.06;100.00;98158.72;5055650;28;20234;-68
2023/02/13 00:46:10;;;;;;;29.60;10.43;;;;;;;2.15;100.00;98153.03;5055808;28;20232;-67
2023/02/13 00:48:37;;;;;;;55.27;11.47;;;;;;;2.13;100.00;98154.03;5055840;28;20697;-68
2023/02/13 00:51:05;;;;;;;34.30;9.90;;;;;;;2.01;100.00;98154.66;5056329;28;20233;-67
2023/02/13 00:53:32;;;;;;;27.77;10.17;;;;;;;2.05;100.00;98157.03;5055811;28;20208;-68
2023/02/13 00:55:59;;;;;;;41.33;9.20;;;;;;;2.01;100.00;98154.66;5055630;28;20200;-68
2023/02/13 00:58:25;;;;;;;30.97;10.20;;;;;;;2.07;100.00;98156.94;5056279;28;20205;-68
2023/02/13 01:00:53;;;;;;;39.47;10.30;;;;;;;2.06;100.00;98165.66;5055738;28;20763;-68
2023/02/13 01:03:21;;;;;;;37.60;9.63;;;;;;;1.88;100.00;98167.47;5055232;28;20575;-68
2023/02/13 01:05:49;;;;;;;40.37;11.83;;;;;;;1.99;100.00;98172.09;5055099;28;20508;-68
2023/02/13 01:08:17;;;;;;;36.13;11.03;;;;;;;1.93;100.00;98162.00;5055697;28;20488;-68
2023/02/13 01:10:46;;;;;;;31.47;10.10;;;;;;;2.02;100.00;98167.56;5055880;28;20211;-68
2023/02/13 01:13:13;;;;;;;33.13;8.73;;;;;;;1.75;100.00;98169.91;5056215;28;20678;-68
2023/02/13 01:15:40;;;;;;;27.53;10.10;;;;;;;1.92;100.00;98163.78;5055158;28;20367;-68
2023/02/13 01:18:07;;;;;;;43.40;11.90;;;;;;;1.95;100.00;98165.38;5055209;28;20405;-68
2023/02/13 01:20:33;;;;;;;31.90;9.90;;;;;;;1.83;100.00;98160.78;5056411;28;20653;-68
2023/02/13 01:23:01;;;;;;;34.67;9.90;;;;;;;2.01;100.00;98160.72;5055333;28;21218;-68
2023/02/13 01:25:28;;;;;;;45.07;8.93;;;;;;;1.95;100.00;98167.97;5054757;28;20224;-68
2023/02/13 01:27:54;;;;;;;39.57;9.70;;;;;;;1.93;100.00;98162.00;5055170;28;20234;-68
2023/02/13 01:30:21;;;;;;;35.80;9.57;;;;;;;1.95;100.00;98155.81;5055916;28;20607;-68
2023/02/13 01:32:48;;;;;;;31.73;9.80;;;;;;;1.94;100.00;98154.13;5055289;28;20496;-68
2023/02/13 01:35:15;;;;;;;31.20;9.17;;;;;;;1.92;100.00;98149.94;5055166;28;20197;-68
2023/02/13 01:37:42;;;;;;;29.87;8.97;;;;;;;1.90;100.00;98156.97;5055728;28;20204;-68
2023/02/13 01:40:12;;;;;;;52.50;9.97;;;;;;;2.00;100.00;98145.19;5055170;28;20210;-68
2023/02/13 01:42:39;;;;;;;32.13;9.17;;;;;;;1.96;100.00;98149.69;5055642;28;20347;-68
2023/02/13 01:45:15;;;;;;;25.67;8.60;;;;;;;2.03;100.00;98160.63;5054750;28;20223;-68
2023/02/13 01:47:44;;;;;;;42.23;9.77;;;;;;;2.00;100.00;98156.41;5055126;28;20208;-68
2023/02/13 01:50:16;;;;;;;35.47;9.67;;;;;;;2.00;100.00;98155.59;5055220;28;20255;-68
2023/02/13 01:52:47;;;;;;;27.17;8.97;;;;;;;2.13;100.00;98160.06;5055532;28;20236;-68
2023/02/13 01:55:16;;;;;;;34.60;10.30;;;;;;;2.01;100.00;98146.84;5054800;28;20196;-68
2023/02/13 01:57:47;;;;;;;21.67;8.80;;;;;;;2.11;100.00;98155.88;5055132;28;20216;-68
2023/02/13 02:00:15;;;;;;;20.37;9.07;;;;;;;2.03;100.00;98150.22;5055462;28;20201;-68
2023/02/13 02:02:47;;;;;;;23.20;9.00;;;;;;;1.98;100.00;98147.03;5054878;28;20232;-68
2023/02/13 02:05:15;;;;;;;21.20;8.97;;;;;;;1.85;100.00;98148.56;5054389;28;20222;-68
2023/02/13 02:07:42;;;;;;;27.20;8.90;;;;;;;1.78;100.00;98147.19;5054915;28;20217;-68
2023/02/13 02:10:11;;;;;;;41.60;8.97;;;;;;;1.82;100.00;98149.56;5055349;28;20206;-67
2023/02/13 02:12:46;;;;;;;26.77;9.03;;;;;;;1.81;100.00;98152.25;5055243;28;20232;-69
2023/02/13 02:15:13;;;;;;;39.53;9.97;;;;;;;1.65;100.00;98153.91;5054523;28;20212;-68
2023/02/13 02:17:40;;;;;;;28.27;8.97;;;;;;;1.75;100.00;98152.53;5055198;28;20208;-68
2023/02/13 02:20:20;;;;;;;30.63;8.50;;;;;;;1.99;100.00;98152.13;5054591;28;20202;-68
2023/02/13 02:23:11;;;;;;;31.87;8.40;;;;;;;2.08;100.00;98156.84;5055354;28;20227;-68
2023/02/13 02:26:10;;;;;;;30.90;8.23;;;;;;;2.12;100.00;98152.34;5054060;28;20440;-68
2023/02/13 02:29:16;;;;;;;25.30;9.10;;;;;;;2.05;100.00;98149.22;5054467;28;20216;-67
2023/02/13 02:32:05;;;;;;;30.23;9.60;;;;;;;2.23;100.00;98144.81;5037036;28;20221;-68
2023/02/13 02:34:42;;;;;;;27.73;9.60;;;;;;;2.23;100.00;98144.81;5053923;28;20661;-68
2023/02/13 02:37:21;;;;;;;23.67;9.30;;;;;;;2.28;100.00;98143.66;5054617;28;20210;-69
2023/02/13 02:40:00;;;;;;;28.07;8.17;;;;;;;2.24;100.00;98141.28;5055844;28;20212;-69
2023/02/13 02:42:36;;;;;;;28.03;9.33;;;;;;;2.26;100.00;98144.66;5058092;28;20491;-68
2023/02/13 02:45:09;;;;;;;43.77;9.47;;;;;;;2.24;100.00;98142.16;5057980;28;20233;-69
2023/02/13 02:50:37;;;;;;;35.70;9.03;;;;;;;2.32;100.00;98145.19;5058422;28;20217;-68
2023/02/13 02:53:16;;;;;;;25.47;8.80;;;;;;;2.32;100.00;98146.91;5057762;28;20200;-67
2023/02/13 02:55:50;;;;;;;23.13;8.60;;;;;;;2.27;100.00;98156.75;5057278;28;20208;-67
2023/02/13 03:06:47;;;;;;;37.00;8.73;;;;;;;2.39;100.00;98156.09;5057569;28;20398;-69
2023/02/13 03:14:47;;;;;;;29.63;10.23;;;;;;;2.27;100.00;98165.38;5056902;28;20458;-69
2023/02/13 03:23:12;;;;;;;27.97;8.77;;;;;;;2.27;100.00;98165.38;5055714;28;20225;-70
2023/02/13 03:25:55;;;;;;;33.00;10.47;;;;;;;2.29;100.00;98162.69;5057142;28;20317;-68
2023/02/13 03:31:20;;;;;;;26.77;8.37;;;;;;;2.13;100.00;98170.47;5057622;28;20668;-67
2023/02/13 03:33:58;;;;;;;35.97;10.03;;;;;;;2.21;100.00;98170.06;5057651;28;20210;-68
2023/02/13 03:39:26;;;;;;;27.33;9.23;;;;;;;2.24;100.00;98167.31;5057459;28;20323;-67
2023/02/13 03:41:57;;;;;;;25.70;9.37;;;;;;;2.33;100.00;98179.81;5058334;28;20221;-67
2023/02/13 03:44:30;;;;;;;30.23;10.47;;;;;;;2.35;100.00;98175.41;5056926;28;20200;-67
2023/02/13 03:46:59;;;;;;;29.53;8.40;;;;;;;2.24;100.00;98180.31;5056644;28;20230;-70
2023/02/13 03:52:23;;;;;;;33.80;10.00;;;;;;;2.29;100.00;98188.72;5056709;28;20236;-69
2023/02/13 04:00:29;;;;;;;24.77;8.37;;;;;;;2.28;100.00;98192.22;5057300;28;20577;-68
2023/02/13 04:03:03;;;;;;;29.00;10.10;;;;;;;2.31;100.00;98195.50;5056994;28;20239;-68
2023/02/13 04:05:32;;;;;;;25.40;9.07;;;;;;;2.27;100.00;98193.16;5058008;28;20229;-68
2023/02/13 04:08:00;;;;;;;28.50;9.13;;;;;;;2.21;100.00;98203.88;5056917;28;20236;-70
2023/02/13 04:10:31;;;;;;;32.57;9.13;;;;;;;2.31;100.00;98202.50;5056761;28;20203;-67
2023/02/13 04:13:05;;;;;;;26.27;9.63;;;;;;;2.42;100.00;98201.84;5057278;28;20492;-67
2023/02/13 04:15:38;;;;;;;26.00;8.20;;;;;;;2.44;100.00;98204.34;5056225;28;20223;-67
2023/02/13 04:18:10;;;;;;;27.77;9.23;;;;;;;2.40;100.00;98202.00;5056290;28;20205;-67
2023/02/13 04:20:38;;;;;;;30.67;9.83;;;;;;;2.20;100.00;98203.06;5056662;28;20696;-67
2023/02/13 04:23:09;;;;;;;36.57;9.30;;;;;;;2.39;100.00;98192.53;5056726;28;20206;-68
2023/02/13 04:25:38;;;;;;;25.83;9.33;;;;;;;2.29;100.00;98196.50;5055202;28;20741;-68
2023/02/13 04:28:05;;;;;;;27.83;7.80;;;;;;;2.11;100.00;98198.28;5056266;28;20221;-67
2023/02/13 04:30:32;;;;;;;26.37;8.63;;;;;;;2.06;100.00;98196.84;5056462;28;20487;-67
2023/02/13 04:32:58;;;;;;;24.70;7.63;;;;;;;2.09;100.00;98194.13;5056624;28;20211;-68
2023/02/13 04:35:25;;;;;;;19.23;7.30;;;;;;;2.02;100.00;98198.75;5055479;28;20197;-67
2023/02/13 04:37:51;;;;;;;21.10;6.60;;;;;;;2.02;100.00;98196.16;5056128;28;20212;-69
2023/02/13 04:40:19;;;;;;;22.77;6.47;;;;;;;2.13;100.00;98200.84;5056216;28;20208;-67
2023/02/13 04:42:47;;;;;;;17.90;6.47;;;;;;;2.12;100.00;98199.97;5056156;28;20231;-69
2023/02/13 04:45:14;;;;;;;23.03;7.67;;;;;;;2.05;100.00;98197.78;5055554;28;20304;-67
2023/02/13 04:47:41;;;;;;;19.00;6.70;;;;;;;2.03;100.00;98199.63;5056377;28;20209;-69
2023/02/13 04:50:08;;;;;;;18.63;7.43;;;;;;;2.09;100.00;98194.13;5055994;28;20208;-67
2023/02/13 04:52:35;;;;;;;20.80;7.17;;;;;;;2.11;100.00;98189.66;5057029;28;20441;-66
2023/02/13 04:55:01;;;;;;;22.77;6.90;;;;;;;2.12;100.00;98196.56;5055540;28;20213;-70
2023/02/13 04:57:29;;;;;;;22.47;7.87;;;;;;;2.18;100.00;98196.25;5055825;28;20197;-67
2023/02/13 04:59:56;;;;;;;18.37;6.27;;;;;;;2.12;100.00;98194.78;5055762;28;20227;-67
2023/02/13 05:02:22;;;;;;;21.77;7.10;;;;;;;2.08;100.00;98193.25;5055286;28;20223;-70
2023/02/13 05:04:49;;;;;;;21.73;7.13;;;;;;;2.08;100.00;98201.06;5055723;28;20212;-67
2023/02/13 05:07:15;;;;;;;27.83;9.10;;;;;;;2.09;100.00;98197.53;5055557;28;20517;-67
2023/02/13 05:09:41;;;;;;;32.77;9.37;;;;;;;2.16;100.00;98190.28;5056176;28;20204;-70
2023/02/13 05:12:08;;;;;;;29.80;9.40;;;;;;;2.13;100.00;98198.25;5055666;28;20232;-68
2023/02/13 05:14:36;;;;;;;26.37;8.53;;;;;;;2.35;100.00;98196.22;5054629;28;20210;-69
2023/02/13 05:17:02;;;;;;;31.23;9.63;;;;;;;2.35;100.00;98193.59;5056240;28;20205;-66
2023/02/13 05:19:29;;;;;;;32.63;9.20;;;;;;;2.33;100.00;98193.69;5056083;28;20201;-66
2023/02/13 05:24:39;;;;;;;23.53;8.37;;;;;;;2.33;100.00;98198.03;5055521;28;20213;-67
2023/02/13 05:27:06;;;;;;;26.70;8.43;;;;;;;2.33;100.00;98198.03;5055322;28;20227;-67
2023/02/13 05:29:32;;;;;;;29.67;9.83;;;;;;;2.29;100.00;98199.97;5055896;28;20198;-67
2023/02/13 05:32:00;;;;;;;23.40;9.30;;;;;;;2.40;100.00;98199.41;5055704;28;20221;-67
2023/02/13 05:34:28;;;;;;;27.17;8.13;;;;;;;2.39;100.00;98206.34;5054813;28;20210;-68
2023/02/13 05:36:55;;;;;;;22.87;8.67;;;;;;;2.36;100.00;98206.53;5055359;28;20197;-68
2023/02/13 05:39:21;;;;;;;24.33;7.80;;;;;;;2.41;100.00;98202.75;5055705;28;20203;-66
2023/02/13 05:41:48;;;;;;;20.73;7.67;;;;;;;2.44;100.00;98202.63;5055555;28;20322;-66
2023/02/13 05:44:15;;;;;;;24.07;7.43;;;;;;;2.46;100.00;98211.16;5054494;28;20201;-69
2023/02/13 05:46:43;;;;;;;22.07;7.63;;;;;;;2.27;100.00;98201.81;5055194;28;20230;-68
2023/02/13 05:49:12;;;;;;;21.37;8.03;;;;;;;2.48;100.00;98209.34;5055081;28;20238;-66
2023/02/13 05:51:39;;;;;;;24.90;7.17;;;;;;;2.38;100.00;98207.31;5055136;28;20224;-68
2023/02/13 05:54:05;;;;;;;23.87;8.40;;;;;;;2.35;100.00;98197.03;5054478;28;20201;-69
2023/02/13 05:56:32;;;;;;;26.03;9.00;;;;;;;2.38;100.00;98204.69;5055681;28;20198;-68
2023/02/13 05:58:58;;;;;;;21.33;7.33;;;;;;;2.42;100.00;98204.44;5055005;28;20368;-66
2023/02/13 06:01:25;;;;;;;20.37;6.83;;;;;;;2.44;100.00;98201.75;5055630;28;20233;-68
2023/02/13 06:03:52;;;;;;;19.77;7.43;;;;;;;2.50;100.00;98206.66;5054934;28;20217;-67
2023/02/13 06:06:20;;;;;;;19.63;6.90;;;;;;;2.59;100.00;98207.00;5054399;28;20713;-68
2023/02/13 06:08:46;;;;;;;22.87;7.93;;;;;;;2.52;100.00;98203.03;5055653;28;20202;-68
2023/02/13 06:11:13;;;;;;;25.70;7.63;;;;;;;2.54;100.00;98201.19;5055949;28;20790;-66
2023/02/13 06:13:39;;;;;;;19.67;7.23;;;;;;;2.52;100.00;98202.19;5055216;28;20228;-67
2023/02/13 06:16:06;;;;;;;18.97;6.63;;;;;;;2.57;100.00;98193.22;5058669;28;20205;-67
2023/02/13 06:18:33;;;;;;;28.63;9.03;;;;;;;2.52;100.00;98200.44;5059478;28;20213;-68
2023/02/13 06:21:00;;;;;;;22.70;8.47;;;;;;;2.57;100.00;98198.44;5059028;28;20596;-67
2023/02/13 06:23:27;;;;;;;25.37;8.07;;;;;;;2.53;100.00;98202.13;5058170;28;20957;-67
2023/02/13 06:25:54;;;;;;;23.87;7.30;;;;;;;2.51;100.00;98197.94;5058774;28;20210;-67
2023/02/13 06:28:20;;;;;;;24.23;7.40;;;;;;;2.53;100.00;98204.72;5058542;28;20207;-68
2023/02/13 06:30:47;;;;;;;22.20;6.67;;;;;;;2.59;100.00;98204.38;5058336;28;20215;-66
2023/02/13 06:33:14;;;;;;;27.10;7.90;;;;;;;2.55;100.00;98207.25;5058975;28;20407;-68
2023/02/13 06:35:40;;;;;;;28.67;7.90;;;;;;;2.53;100.00;98207.34;5057925;28;20294;-67
2023/02/13 06:38:07;;;;;;;25.70;7.53;;;;;;;2.41;100.00;98207.97;5058589;28;20217;-67
2023/02/13 06:40:36;;;;;;;22.47;7.50;;;;;;;2.52;100.00;98205.66;5059356;28;21069;-68
2023/02/13 06:43:03;;;;;;;29.27;8.83;;;;;;;2.47;100.00;98218.06;5058791;28;20591;-68
2023/02/13 06:45:29;;;;;;;28.90;10.50;;;;;;;2.43;100.00;98213.06;5058170;28;20207;-67
2023/02/13 06:47:55;;;;;;;24.13;8.30;;;;;;;2.34;100.00;98215.31;5059118;28;20225;-67
2023/02/13 06:50:22;;;;;;;26.43;7.70;;;;;;;2.40;100.00;98212.41;5059311;28;20217;-67
2023/02/13 06:52:50;;;;;;;21.83;7.00;;;;;;;2.50;100.00;98212.69;5059591;28;20238;-68
2023/02/13 06:55:17;;;;;;;20.80;7.17;;;;;;;2.54;100.00;98219.41;5058329;28;20207;-67
2023/02/13 06:57:46;;;;;;;19.90;7.77;;;;;;;2.56;100.00;98211.53;5058978;28;20214;-67
2023/02/13 07:00:14;;;;;;;22.27;7.07;;;;;;;2.47;100.00;98218.06;5058447;28;21191;-68
2023/02/13 07:02:41;;;;;;;24.47;8.03;;;;;;;2.52;100.00;98215.19;5058403;28;20586;-68
2023/02/13 07:05:08;;;;;;;21.57;6.77;;;;;;;2.47;100.00;98223.25;5058000;28;20623;-67
2023/02/13 07:07:35;;;;;;;18.07;6.37;;;;;;;2.30;100.00;98226.81;5058476;28;20236;-67
2023/02/13 07:10:02;;;;;;;18.73;7.00;;;;;;;2.43;100.00;98226.94;5058971;28;20214;-68
2023/02/13 07:12:29;;;;;;;30.87;8.03;;;;;;;2.46;100.00;98229.38;5058494;28;20769;-67
2023/02/13 07:14:56;;;;;;;25.63;7.13;;;;;;;2.53;100.00;98232.50;5057711;28;20594;-67
2023/02/13 07:17:23;;;;;;;22.53;7.93;;;;;;;2.39;100.00;98231.53;5058399;28;20390;-68
2023/02/13 07:19:49;;;;;;;23.30;7.30;;;;;;;2.54;100.00;98228.97;5059019;28;20305;-68
2023/02/13 07:22:16;;;;;;;24.33;7.33;;;;;;;2.59;100.00;98233.00;5058338;28;20253;-68
2023/02/13 07:24:42;;;;;;;22.00;6.17;;;;;;;2.57;100.00;98232.28;5057790;28;20206;-66
2023/02/13 07:27:09;;;;;;;23.73;7.43;;;;;;;2.66;100.00;98239.59;5057990;28;20591;-68
2023/02/13 07:29:35;;;;;;;26.50;8.03;;;;;;;2.74;100.00;98241.78;5058442;28;20211;-69
2023/02/13 07:32:04;;;;;;;24.60;7.83;;;;;;;2.86;100.00;98241.97;5058026;28;20227;-68
2023/02/13 07:34:30;;;;;;;21.23;7.60;;;;;;;2.68;100.00;98242.09;5057972;28;20206;-69
2023/02/13 07:36:56;;;;;;;31.00;8.33;;;;;;;2.71;100.00;98248.00;5058209;28;20688;-69
2023/02/13 07:39:23;;;;;;;18.27;7.10;;;;;;;2.54;100.00;98248.03;5057844;28;20207;-68
2023/02/13 07:41:50;;;;;;;21.97;6.93;;;;;;;2.61;100.00;98246.78;5058533;28;20225;-68
2023/02/13 07:44:16;;;;;;;16.10;7.00;;;;;;;2.55;100.00;98254.91;5057513;28;20223;-68
2023/02/13 07:46:43;;;;;;;17.67;6.57;;;;;;;2.61;100.00;98257.22;5057667;28;20223;-69
2023/02/13 07:49:11;;;;;;;20.80;7.27;;;;;;;2.61;100.00;98252.00;5058163;28;20210;-67
2023/02/13 07:51:37;;;;;;;23.97;7.77;;;;;;;2.27;100.00;98253.81;5059005;28;20678;-68
2023/02/13 07:54:04;;;;;;;24.67;6.97;;;;;;;2.40;100.00;98253.09;5056429;28;20208;-68
2023/02/13 07:56:30;;;;;;;29.93;7.23;;;;;;;2.47;100.00;98244.06;5057802;28;20200;-67
2023/02/13 07:58:57;;;;;;;26.47;8.03;;;;;;;2.59;100.00;98256.44;5058202;28;20216;-68
2023/02/13 08:01:23;;;;;;;22.23;7.17;;;;;;;2.64;100.00;98251.84;5057357;28;20223;-67
2023/02/13 08:03:51;;;;;;;23.80;7.90;;;;;;;2.73;100.00;98245.31;5056859;28;20197;-66
2023/02/13 08:06:20;;;;;;;20.83;7.07;;;;;;;2.60;100.00;98254.69;5057674;28;20198;-68
2023/02/13 08:08:46;;;;;;;22.57;8.03;;;;;;;2.60;100.00;98260.72;5057713;28;20221;-67
2023/02/13 08:14:08;;;;;;;24.57;8.63;;;;;;;2.73;100.00;98255.72;5056490;28;20258;-66
2023/02/13 08:16:34;;;;;;;21.33;7.33;;;;;;;2.70;100.00;98256.72;5057508;28;20386;-68
2023/02/13 08:19:01;;;;;;;20.60;7.63;;;;;;;2.79;100.00;98257.97;5056882;28;20208;-68
2023/02/13 08:21:28;;;;;;;21.30;7.50;;;;;;;2.88;100.00;98258.34;5057726;28;20230;-67
2023/02/13 08:23:55;;;;;;;26.07;7.50;;;;;;;2.54;100.00;98257.59;5055706;28;20857;-66
2023/02/13 08:26:21;;;;;;;22.90;7.77;;;;;;;2.58;100.00;98262.59;5056232;28;20212;-68
2023/02/13 08:28:48;;;;;;;23.70;7.77;;;;;;;2.75;100.00;98256.47;5056639;28;20460;-67
2023/02/13 08:31:14;;;;;;;28.23;8.50;;;;;;;2.71;100.00;98257.56;5056455;28;20724;-66
2023/02/13 08:33:41;;;;;;;30.13;8.33;;;;;;;2.79;100.00;98258.84;5056399;28;20206;-68
2023/02/13 08:36:08;;;;;;;19.53;6.47;;;;;;;2.83;100.00;98255.16;5056928;28;20233;-67
2023/02/13 08:38:35;;;;;;;22.07;6.47;;;;;;;2.85;100.00;98262.88;5055389;28;20225;-68
2023/02/13 08:41:02;;;;;;;26.00;7.00;;;;;;;2.72;100.00;98256.63;5056326;28;20230;-68
2023/02/13 08:43:28;;;;;;;24.67;8.00;;;;;;;2.79;100.00;98263.19;5055887;28;20845;-68
2023/02/13 08:45:58;;;;;;;24.30;8.13;;;;;;;2.83;100.00;98268.16;5055923;28;20213;-68
2023/02/13 08:48:25;;;;;;;25.10;9.33;;;;;;;2.73;100.00;98264.38;5053164;28;20245;-68
2023/02/13 08:50:51;;;;;;;25.30;8.60;;;;;;;2.64;100.00;98262.25;5054790;28;20218;-68
2023/02/13 08:53:18;;;;;;;28.60;8.80;;;;;;;2.73;100.00;98263.53;5054979;28;20723;-68
2023/02/13 08:55:53;;;;;;;25.13;7.77;;;;;;;2.90;100.00;98260.88;5054225;28;20210;-66
2023/02/13 08:58:19;;;;;;;23.67;7.83;;;;;;;2.93;100.00;98269.38;5055428;28;20198;-68
2023/02/13 09:00:46;;;;;;;24.60;8.00;;;;;;;3.03;100.00;98270.56;5054074;28;20673;-68
2023/02/13 09:03:12;;;;;;;25.53;7.93;;;;;;;3.09;100.00;98258.06;5055572;28;20211;-66
2023/02/13 09:05:39;;;;;;;27.43;9.57;;;;;;;3.12;100.00;98267.47;5054279;28;20580;-68
2023/02/13 09:08:07;;;;;;;25.53;8.13;;;;;;;2.99;100.00;98263.81;5054193;28;20725;-68
2023/02/13 09:10:34;;;;;;;24.13;7.20;;;;;;;2.95;100.00;98266.69;5054717;28;20195;-67
2023/02/13 09:13:02;;;;;;;22.37;6.70;;;;;;;2.93;100.00;98263.28;5054628;28;20226;-67
2023/02/13 09:15:28;;;;;;;26.37;7.60;;;;;;;2.94;100.00;98273.66;5053521;28;20575;-68
2023/02/13 09:17:55;;;;;;;25.80;7.97;;;;;;;2.92;100.00;98272.88;5054581;28;20198;-66
2023/02/13 09:20:21;;;;;;;21.73;7.10;;;;;;;2.93;100.00;98271.13;5055334;28;20202;-68
2023/02/13 09:22:48;;;;;;;24.30;7.63;;;;;;;3.04;100.00;98267.00;5055219;28;20232;-67
2023/02/13 09:25:15;;;;;;;32.33;9.70;;;;;;;2.97;100.00;98262.25;5054488;28;20206;-68
2023/02/13 09:27:41;;;;;;;25.23;7.50;;;;;;;2.78;100.00;98267.56;5055361;28;21245;-66
2023/02/13 09:30:11;;;;;;;30.43;9.20;;;;;;;2.91;100.00;98276.41;5054981;28;20680;-68
2023/02/13 09:32:41;;;;;;;21.87;8.73;;;;;;;3.11;100.00;98274.41;5054563;28;20243;-68
2023/02/13 09:35:08;;;;;;;24.10;8.30;;;;;;;3.10;100.00;98269.28;5054474;28;20214;-67
2023/02/13 09:37:34;;;;;;;26.03;7.87;;;;;;;3.21;100.00;98266.97;5052715;28;20207;-68
2023/02/13 09:40:01;;;;;;;25.07;7.67;;;;;;;3.03;100.00;98270.56;5055205;28;20207;-68
2023/02/13 09:42:31;;;;;;;22.93;8.07;;;;;;;3.25;100.00;98276.28;5054955;28;20217;-67
2023/02/13 09:45:01;;;;;;;24.73;7.67;;;;;;;3.30;100.00;98267.28;5054362;28;20705;-66
2023/02/13 09:47:31;;;;;;;21.77;7.53;;;;;;;3.43;100.00;98264.84;5054070;28;20235;-65
2023/02/13 09:50:02;;;;;;;30.10;8.80;;;;;;;3.25;100.00;98268.47;5057931;28;20199;-68
2023/02/13 09:52:34;;;;;;;20.13;7.87;;;;;;;3.43;100.00;98267.47;5058860;28;20235;-66
2023/02/13 09:55:01;;;;;;;25.07;8.30;;;;;;;3.16;100.00;98277.63;5058506;28;20207;-68
2023/02/13 09:57:33;;;;;;;25.33;7.70;;;;;;;3.32;100.00;98275.88;5058703;28;21105;-66
2023/02/13 10:00:11;;;;;;;24.10;7.57;;;;;;;3.38;100.00;98272.91;5059012;28;20204;-67
2023/02/13 10:03:07;;;;;;;23.43;7.13;;;;;;;3.39;100.00;98273.78;5058343;28;20250;-67
2023/02/13 10:05:44;;;;;;;24.23;8.33;;;;;;;3.52;100.00;98278.19;5058225;28;20667;-67
2023/02/13 10:08:24;;;;;;;25.87;8.47;;;;;;;3.53;100.00;98276.47;5058302;28;20227;-66
2023/02/13 10:10:58;;;;;;;23.77;8.03;;;;;;;3.50;100.00;98284.44;5058625;28;20210;-67
2023/02/13 10:13:39;;;;;;;23.53;7.40;;;;;;;3.51;100.00;98283.50;5057930;28;20199;-67
2023/02/13 10:16:10;;;;;;;24.97;7.63;;;;;;;3.47;100.00;98279.38;5060001;28;20208;-68
2023/02/13 10:18:45;;;;;;;27.83;9.60;;;;;;;3.63;100.00;98276.69;5058517;28;20207;-68
2023/02/13 10:21:14;;;;;;;19.53;7.93;;;;;;;3.51;100.00;98273.09;5058617;28;20929;-67
2023/02/13 10:23:46;;;;;;;22.97;7.63;;;;;;;3.65;100.00;98274.84;5057572;28;20940;-67
2023/02/13 10:26:19;;;;;;;25.07;8.10;;;;;;;3.55;100.00;98272.81;5058674;28;20208;-68
2023/02/13 10:30:03;;;;;;;21.90;7.60;;;;;;;3.35;100.00;98267.88;5058372;28;20234;-66
2023/02/13 10:31:39;;;;;;;15.30;6.20;;;;;;;3.29;100.00;98268.19;5057826;28;20707;-66
2023/02/13 10:34:14;;;;;;;24.30;7.80;;;;;;;3.49;100.00;98267.97;5057335;28;20207;-67
2023/02/13 10:36:44;;;;;;;25.23;8.53;;;;;;;3.62;100.00;98271.56;5058798;28;20294;-68
2023/02/13 10:39:21;;;;;;;23.50;7.80;;;;;;;3.62;100.00;98266.34;5058137;28;20227;-68
2023/02/13 10:41:52;;;;;;;28.20;7.83;;;;;;;3.65;100.00;98267.03;5057881;28;20227;-66
2023/02/13 10:44:32;;;;;;;19.57;7.10;;;;;;;3.79;100.00;98254.06;5057550;28;21142;-68
2023/02/13 10:47:06;;;;;;;18.63;7.20;;;;;;;3.70;100.00;98254.56;5057830;28;20203;-67
2023/02/13 10:50:03;;;;;;;22.07;7.27;;;;;;;3.67;100.00;98252.13;5057753;28;20199;-68
2023/02/13 10:52:44;;;;;;;22.90;7.40;;;;;;;3.62;100.00;98251.53;5057549;28;20223;-68
2023/02/13 10:55:25;;;;;;;24.53;7.80;;;;;;;3.68;100.00;98255.59;5057369;28;20207;-68
2023/02/13 10:58:06;;;;;;;23.50;7.57;;;;;;;3.77;100.00;98244.63;5058114;28;20207;-69
2023/02/13 11:00:38;;;;;;;21.77;7.47;;;;;;;3.57;100.00;98247.50;5057751;28;20222;-67
2023/02/13 11:03:04;;;;;;;21.53;7.20;;;;;;;3.72;100.00;98238.84;5058213;28;20783;-67
2023/02/13 11:05:36;;;;;;;25.33;7.10;;;;;;;3.73;100.00;98246.56;5057002;28;20204;-68
2023/02/13 11:08:03;;;;;;;29.23;8.60;;;;;;;3.71;100.00;98244.97;5057683;28;20235;-66
2023/02/13 11:10:30;;;;;;;27.23;8.40;;;;;;;3.82;100.00;98243.44;5058171;28;20204;-67
2023/02/13 11:12:57;;;;;;;27.47;8.43;;;;;;;3.81;100.00;98241.75;5057348;28;20235;-68
2023/02/13 11:15:26;;;;;;;24.00;7.53;;;;;;;3.80;100.00;98242.66;5056751;28;20699;-68
2023/02/13 11:17:56;;;;;;;26.40;8.73;;;;;;;3.72;100.00;98238.84;5057769;28;20533;-68
2023/02/13 11:20:28;;;;;;;30.17;10.20;;;;;;;3.63;100.00;98236.75;5057257;28;20196;-67
2023/02/13 11:23:09;;;;;;;20.93;8.07;;;;;;;3.57;100.00;98242.31;5056655;28;20231;-67
2023/02/13 11:25:38;;;;;;;24.53;7.60;;;;;;;3.83;100.00;98224.25;5056796;28;20207;-69
2023/02/13 11:28:09;;;;;;;23.57;7.53;;;;;;;3.93;100.00;98228.00;5057096;28;20235;-66
2023/02/13 11:30:37;;;;;;;23.30;8.17;;;;;;;3.99;100.00;98230.25;5057180;28;20677;-68
2023/02/13 11:33:06;;;;;;;22.20;7.57;;;;;;;3.85;100.00;98237.19;5056725;28;20207;-69
2023/02/13 11:35:35;;;;;;;22.60;7.50;;;;;;;3.93;100.00;98235.81;5055974;28;20208;-67
2023/02/13 11:38:20;;;;;;;25.20;7.90;;;;;;;4.01;100.00;98236.22;5057566;28;20196;-68
2023/02/13 11:40:49;;;;;;;27.67;8.13;;;;;;;3.87;100.00;98233.59;5057311;28;20211;-69
2023/02/13 11:43:23;;;;;;;24.10;7.50;;;;;;;3.93;100.00;98230.59;5057440;28;20199;-67
2023/02/13 11:46:02;;;;;;;22.20;8.47;;;;;;;4.06;100.00;98231.59;5057092;28;20203;-67
2023/02/13 11:48:28;;;;;;;24.40;8.00;;;;;;;4.03;100.00;98236.97;5057440;28;20732;-69
2023/02/13 11:50:56;;;;;;;23.50;7.87;;;;;;;4.09;100.00;98235.78;5057247;28;20226;-67
2023/02/13 11:53:27;;;;;;;21.20;7.30;;;;;;;4.02;100.00;98226.63;5057147;28;20211;-67
2023/02/13 11:56:03;;;;;;;21.90;7.30;;;;;;;4.01;100.00;98231.03;5057233;28;20204;-69
2023/02/13 11:58:30;;;;;;;28.87;9.13;;;;;;;3.39;100.00;98230.31;5057491;28;20199;-68
2023/02/13 12:01:27;;;;;;;21.57;7.73;;;;;;;3.54;100.00;98226.84;5055002;28;20235;-69
2023/02/13 12:04:03;;;;;;;20.13;7.57;;;;;;;3.76;100.00;98233.34;5055208;28;20269;-67
2023/02/13 12:06:30;;;;;;;27.30;8.13;;;;;;;3.87;100.00;98223.16;5056127;28;20526;-66
2023/02/13 12:08:58;;;;;;;25.40;9.03;;;;;;;3.76;100.00;98228.13;5056402;28;20681;-68
2023/02/13 12:11:35;;;;;;;21.37;7.57;;;;;;;4.00;100.00;98224.13;5056285;28;20353;-67
2023/02/13 12:14:02;;;;;;;21.27;7.63;;;;;;;3.87;100.00;98217.06;5055399;28;20208;-67
2023/02/13 12:16:32;;;;;;;24.37;8.23;;;;;;;3.92;100.00;98221.13;5056712;28;20204;-67
2023/02/13 12:19:05;;;;;;;23.80;7.43;;;;;;;3.97;100.00;98216.47;5057196;28;20200;-69